Time;durP1;ratioP1;P1;durP2;ratioP2;P2;SDS_P1;SDS_P2;PMS_P1;PMS_P2;Temp;Humidity;BMP_temperature;BMP_pressure;BME280_temperature;BME280_humidity;BME280_pressure;Samples;Min_cycle;Max_cycle;Signal;HPM_P1;HPM_P2
2024/02/24 00:00:32;;;;;;;;;5.33;2.00;;;;;22.17;41.97;99250.25;6399610;22;45363;-74
2024/02/24 00:02:57;;;;;;;;;3.00;2.33;;;;;22.07;42.26;99230.34;6399008;22;45280;-73
2024/02/24 00:05:25;;;;;;;;;3.00;2.33;;;;;22.25;42.07;99254.44;6398977;22;47460;-74
2024/02/24 00:07:51;;;;;;;;;2.00;2.00;;;;;22.29;42.03;99264.38;6399948;22;45336;-73
2024/02/24 00:10:16;;;;;;;;;2.00;2.00;;;;;22.27;42.18;99263.78;6400654;22;45154;-74
2024/02/24 00:12:42;;;;;;;;;2.33;2.33;;;;;22.17;41.47;99255.53;6400426;22;45457;-74
2024/02/24 00:15:08;;;;;;;;;3.33;3.00;;;;;22.20;42.07;99254.28;6400417;22;47065;-74
2024/02/24 00:17:33;;;;;;;;;2.67;2.33;;;;;22.23;41.40;99259.13;6400452;22;45166;-74
2024/02/24 00:19:58;;;;;;;;;2.00;1.67;;;;;22.24;41.76;99268.72;6400365;22;45299;-74
2024/02/24 00:22:24;;;;;;;;;2.00;2.00;;;;;22.23;41.49;99267.88;6399947;22;55632;-74
2024/02/24 00:24:49;;;;;;;;;3.00;2.00;;;;;22.23;41.51;99272.38;6400769;22;45227;-74
2024/02/24 00:27:15;;;;;;;;;1.67;1.67;;;;;21.92;41.52;99229.91;6400327;22;49999;-74
2024/02/24 00:29:40;;;;;;;;;1.00;1.00;;;;;22.21;41.39;99277.91;6400904;22;45251;-73
2024/02/24 00:32:06;;;;;;;;;2.67;2.00;;;;;22.18;41.59;99283.63;6400472;22;45307;-74
2024/02/24 00:34:31;;;;;;;;;2.67;2.00;;;;;22.19;41.57;99287.91;6400506;22;45954;-74
2024/02/24 00:36:56;;;;;;;;;2.00;2.00;;;;;22.20;41.71;99291.38;6400429;22;45295;-74
2024/02/24 00:39:22;;;;;;;;;1.00;1.00;;;;;22.19;41.71;99293.22;6401017;22;45276;-74
2024/02/24 00:41:50;;;;;;;;;3.00;1.00;;;;;22.15;41.62;99284.06;6399485;22;61380;-74
2024/02/24 00:44:15;;;;;;;;;3.33;2.33;;;;;22.16;41.15;99291.00;6400430;22;46267;-73
2024/02/24 00:46:41;;;;;;;;;1.67;1.67;;;;;22.17;41.46;99287.31;6400706;22;45312;-74
2024/02/24 00:49:06;;;;;;;;;3.00;1.00;;;;;22.12;41.16;99284.53;6400307;22;45120;-74
2024/02/24 00:51:32;;;;;;;;;3.00;3.00;;;;;22.15;41.30;99294.66;6371545;22;45288;-73
2024/02/24 00:53:57;;;;;;;;;3.00;2.00;;;;;22.16;41.09;99298.94;6400392;22;46210;-74
2024/02/24 00:56:22;;;;;;;;;2.00;2.00;;;;;22.16;41.02;99301.59;6400865;22;45338;-74
2024/02/24 00:58:48;;;;;;;;;2.00;1.33;;;;;22.16;41.58;99304.25;6372303;22;45396;-74
2024/02/24 01:01:13;;;;;;;;;3.33;2.33;;;;;22.15;41.45;99297.31;6400802;22;45214;-74
2024/02/24 01:03:38;;;;;;;;;1.33;1.00;;;;;22.09;41.03;99299.00;6399968;22;47281;-73
2024/02/24 01:06:04;;;;;;;;;2.00;2.00;;;;;22.05;41.36;99285.38;6399213;22;55268;-73
2024/02/24 01:08:29;;;;;;;;;3.00;2.00;;;;;22.15;41.47;99310.56;6400365;22;45350;-73
2024/02/24 01:10:54;;;;;;;;;1.33;1.33;;;;;22.09;40.85;99299.00;6400312;22;45283;-73
2024/02/24 01:13:20;;;;;;;;;2.00;2.00;;;;;22.13;40.92;99310.78;6400527;22;46144;-74
2024/02/24 01:15:45;;;;;;;;;2.67;1.67;;;;;22.15;41.36;99310.56;6400710;22;45268;-74
2024/02/24 01:18:10;;;;;;;;;2.67;2.67;;;;;22.14;41.20;99316.91;6400449;22;45298;-74
2024/02/24 01:20:36;;;;;;;;;4.33;2.00;;;;;22.10;40.97;99318.34;6400411;22;45280;-74
2024/02/24 01:23:01;;;;;;;;;1.33;1.33;;;;;21.87;41.22;99274.72;6400462;22;46237;-74
2024/02/24 01:25:27;;;;;;;;;3.00;2.00;;;;;22.13;41.41;99325.84;6406729;22;45315;-74
2024/02/24 01:27:53;;;;;;;;;2.00;1.33;;;;;22.02;40.92;99312.31;6401424;22;45312;-74
2024/02/24 01:30:18;;;;;;;;;2.00;1.00;;;;;22.09;40.97;99325.50;6400648;22;45407;-73
2024/02/24 01:32:44;;;;;;;;;1.33;0.67;;;;;22.12;40.86;99332.19;6400720;22;46134;-74
2024/02/24 01:35:09;;;;;;;;;2.33;2.33;;;;;22.05;40.58;99333.06;6400142;22;45244;-73
2024/02/24 01:37:35;;;;;;;;;2.33;2.33;;;;;22.10;40.69;99336.88;6400382;22;45290;-73
2024/02/24 01:40:03;;;;;;;;;1.00;1.00;;;;;22.11;41.09;99338.50;6400993;22;45379;-73
2024/02/24 01:42:28;;;;;;;;;2.33;2.33;;;;;22.06;41.37;99336.53;6399655;22;47826;-73
2024/02/24 01:44:54;;;;;;;;;2.00;2.00;;;;;22.11;41.20;99344.63;6400072;22;45174;-74
2024/02/24 01:47:19;;;;;;;;;1.00;1.00;;;;;22.09;40.85;99340.56;6400455;22;45181;-73
2024/02/24 01:49:46;;;;;;;;;2.67;2.67;;;;;22.09;41.29;99341.41;6399740;22;45460;-74
2024/02/24 01:52:12;;;;;;;;;1.67;1.00;;;;;21.68;40.72;99274.66;6400417;22;45263;-74
2024/02/24 01:54:37;;;;;;;;;1.00;1.00;;;;;22.10;41.03;99336.88;6399941;22;45326;-73
2024/02/24 01:57:04;;;;;;;;;4.67;2.00;;;;;22.07;41.02;99336.28;6400009;22;45205;-73
2024/02/24 01:59:31;;;;;;;;;2.33;2.00;;;;;21.93;40.91;99311.78;6400276;22;45418;-73
2024/02/24 02:01:57;;;;;;;;;2.00;1.00;;;;;22.07;41.20;99341.59;6400140;22;45263;-74
2024/02/24 02:04:22;;;;;;;;;2.67;2.67;;;;;21.85;40.79;99306.72;6399783;22;45497;-73
2024/02/24 02:06:47;;;;;;;;;0.67;0.67;;;;;22.09;40.82;99346.69;6400623;22;45215;-74
2024/02/24 02:09:13;;;;;;;;;1.67;0.67;;;;;22.02;41.38;99335.31;6400418;22;45370;-74
2024/02/24 02:11:38;;;;;;;;;2.67;2.00;;;;;22.00;40.78;99327.59;6371393;22;45965;-74
2024/02/24 02:14:05;;;;;;;;;3.33;2.00;;;;;22.03;40.76;99339.59;6400497;22;45230;-74
2024/02/24 02:16:31;;;;;;;;;1.00;1.00;;;;;22.05;40.76;99343.66;6400353;22;45446;-74
2024/02/24 02:18:56;;;;;;;;;2.00;2.00;;;;;22.07;41.00;99351.38;6400050;22;45433;-73
2024/02/24 02:21:21;;;;;;;;;2.00;1.33;;;;;22.04;40.75;99352.63;6400099;22;54892;-73
2024/02/24 02:23:48;;;;;;;;;1.33;1.00;;;;;21.85;40.80;99318.13;6400485;22;45376;-74
2024/02/24 02:26:14;;;;;;;;;1.33;1.33;;;;;22.06;41.00;99349.78;6400071;22;45304;-74
2024/02/24 02:28:40;;;;;;;;;1.67;1.67;;;;;22.06;40.86;99355.88;6399553;22;45231;-73
2024/02/24 02:31:06;;;;;;;;;2.00;2.00;;;;;21.93;40.74;99340.09;6399633;22;46799;-73
2024/02/24 02:33:31;;;;;;;;;2.00;2.00;;;;;22.05;40.75;99342.84;6399183;22;45311;-73
2024/02/24 02:35:56;;;;;;;;;2.33;2.33;;;;;22.04;41.15;99342.03;6400442;22;45222;-74
2024/02/24 02:38:22;;;;;;;;;1.33;1.33;;;;;22.04;40.83;99338.59;6371540;22;45540;-74
2024/02/24 02:40:47;;;;;;;;;2.67;2.00;;;;;21.94;41.10;99326.63;6400232;22;45996;-74
2024/02/24 02:43:12;;;;;;;;;1.33;1.33;;;;;22.03;40.76;99350.19;6399692;22;54346;-73
2024/02/24 02:45:38;;;;;;;;;0.67;0.67;;;;;22.02;40.85;99348.56;6400481;22;45292;-73
2024/02/24 02:48:03;;;;;;;;;1.67;1.67;;;;;22.03;41.27;99348.38;6399428;22;45203;-73
2024/02/24 02:50:29;;;;;;;;;2.33;2.33;;;;;22.03;40.97;99350.19;6399610;22;47160;-74
2024/02/24 02:52:54;;;;;;;;;2.00;2.00;;;;;21.94;41.13;99337.22;6400206;22;45184;-73
2024/02/24 02:55:20;;;;;;;;;2.33;2.33;;;;;21.99;41.18;99349.03;6400458;22;45122;-73
2024/02/24 02:57:46;;;;;;;;;3.33;1.67;;;;;22.03;40.91;99355.50;6371500;22;45454;-73
2024/02/24 03:00:12;;;;;;;;;1.33;1.33;;;;;22.04;40.69;99351.81;6399968;22;45797;-74
2024/02/24 03:02:37;;;;;;;;;2.00;2.00;;;;;22.03;41.12;99356.31;6399852;22;45315;-73
2024/02/24 03:05:02;;;;;;;;;2.00;2.00;;;;;21.91;40.50;99342.94;6399756;22;45291;-73
2024/02/24 03:07:28;;;;;;;;;2.00;1.00;;;;;22.03;40.86;99355.50;6400224;22;45251;-74
2024/02/24 03:09:54;;;;;;;;;1.67;1.67;;;;;22.03;40.54;99350.19;6399632;22;46216;-74
2024/02/24 03:12:19;;;;;;;;;1.67;0.33;;;;;22.00;40.45;99340.84;6399477;22;45209;-73
2024/02/24 03:14:45;;;;;;;;;3.67;1.00;;;;;21.97;40.44;99341.28;6399923;22;45225;-73
2024/02/24 03:17:10;;;;;;;;;0.33;0.33;;;;;22.03;40.46;99355.50;6399325;22;45327;-74
2024/02/24 03:19:39;;;;;;;;;1.33;1.33;;;;;22.01;40.95;99357.56;6399186;22;46099;-73
2024/02/24 03:22:04;;;;;;;;;0.33;0.33;;;;;22.02;40.79;99352.03;6399527;22;45275;-73
2024/02/24 03:24:29;;;;;;;;;0.67;0.67;;;;;22.02;40.76;99345.91;6399831;22;45315;-74
2024/02/24 03:26:55;;;;;;;;;1.67;1.67;;;;;22.01;40.16;99347.78;6371147;22;45514;-74
2024/02/24 03:29:20;;;;;;;;;1.00;1.00;;;;;22.01;40.47;99353.06;6398584;22;63259;-73
2024/02/24 03:31:45;;;;;;;;;2.67;1.33;;;;;22.01;40.41;99355.72;6398974;22;50031;-74
2024/02/24 03:34:11;;;;;;;;;1.00;1.00;;;;;22.00;40.27;99351.44;6400058;22;45237;-73
2024/02/24 03:36:36;;;;;;;;;1.67;1.67;;;;;21.94;40.30;99336.41;6399392;22;52810;-73
2024/02/24 03:39:01;;;;;;;;;0.67;0.67;;;;;22.00;40.46;99356.72;6398719;22;57002;-73
2024/02/24 03:41:31;;;;;;;;;2.67;0.67;;;;;22.01;40.72;99361.00;6400455;22;47474;-74
2024/02/24 03:43:57;;;;;;;;;1.67;1.67;;;;;21.88;40.24;99346.03;6400728;22;45296;-74
2024/02/24 03:46:22;;;;;;;;;1.00;0.67;;;;;21.90;40.59;99351.13;6400620;22;45157;-74
2024/02/24 03:48:47;;;;;;;;;0.33;0.00;;;;;21.92;40.01;99364.94;6401103;22;50079;-73
2024/02/24 03:51:12;;;;;;;;;2.33;0.67;;;;;21.92;40.01;99354.34;6400498;22;45327;-73
2024/02/24 03:53:38;;;;;;;;;1.00;0.33;;;;;22.00;40.18;99369.16;6401243;22;45281;-73
2024/02/24 03:56:04;;;;;;;;;0.67;0.67;;;;;22.00;39.99;99377.09;6400663;22;45397;-74
2024/02/24 03:58:29;;;;;;;;;1.67;1.00;;;;;21.93;40.19;99369.22;6400893;22;45258;-73
2024/02/24 04:00:56;;;;;;;;;0.00;0.00;;;;;21.94;40.46;99384.06;6400610;22;45366;-73
2024/02/24 04:03:21;;;;;;;;;1.00;1.00;;;;;21.93;40.25;99385.09;6400695;22;45248;-74
2024/02/24 04:05:47;;;;;;;;;0.67;0.67;;;;;22.00;40.46;99393.00;6400497;22;45393;-73
2024/02/24 04:08:13;;;;;;;;;1.33;1.33;;;;;21.95;40.47;99391.81;6371205;22;45717;-73
2024/02/24 04:10:38;;;;;;;;;1.33;1.33;;;;;21.95;40.28;99397.13;6400399;22;45325;-73
2024/02/24 04:13:04;;;;;;;;;0.67;0.67;;;;;21.99;40.03;99399.34;6400928;22;45200;-74
2024/02/24 04:15:29;;;;;;;;;0.00;0.00;;;;;21.98;40.56;99398.53;6401345;22;45424;-73
2024/02/24 04:17:54;;;;;;;;;3.33;1.33;;;;;21.98;40.58;99406.47;6400925;22;45329;-74
2024/02/24 04:20:20;;;;;;;;;1.00;1.00;;;;;21.94;40.34;99402.59;6400543;22;57288;-73
2024/02/24 04:22:45;;;;;;;;;0.67;0.67;;;;;21.99;40.16;99418.66;6401226;22;45276;-73
2024/02/24 04:25:10;;;;;;;;;0.67;0.67;;;;;21.92;40.27;99399.38;6400599;22;45289;-74
2024/02/24 04:27:36;;;;;;;;;1.67;1.67;;;;;21.88;40.40;99398.19;6400483;22;51933;-74
2024/02/24 04:30:02;;;;;;;;;1.00;1.00;;;;;21.98;40.55;99414.41;6400322;22;45249;-73
2024/02/24 04:32:29;;;;;;;;;0.33;0.00;;;;;21.92;40.24;99410.78;6401050;22;45560;-73
2024/02/24 04:34:54;;;;;;;;;0.67;0.67;;;;;21.97;40.16;99418.06;6400914;22;45453;-73
2024/02/24 04:37:19;;;;;;;;;1.33;1.33;;;;;21.98;40.49;99421.53;6399832;22;56513;-73
2024/02/24 04:39:45;;;;;;;;;1.67;1.67;;;;;21.97;39.98;99431.31;6400472;22;45283;-74
2024/02/24 04:42:10;;;;;;;;;0.67;0.67;;;;;21.95;40.22;99434.19;6400210;22;47530;-73
2024/02/24 04:44:35;;;;;;;;;0.67;0.67;;;;;21.95;40.37;99436.84;6400309;22;45438;-73
2024/02/24 04:47:00;;;;;;;;;2.00;1.00;;;;;21.97;40.32;99439.25;6400340;22;56656;-74
2024/02/24 04:49:26;;;;;;;;;0.00;0.00;;;;;21.97;39.72;99441.91;6400093;22;45299;-73
2024/02/24 04:51:51;;;;;;;;;0.67;0.67;;;;;21.83;40.10;99415.47;6400458;22;45332;-74
2024/02/24 04:54:16;;;;;;;;;0.67;0.67;;;;;21.88;39.93;99425.47;6400430;22;45393;-73
2024/02/24 04:56:42;;;;;;;;;1.00;1.00;;;;;21.97;39.69;99436.59;6400048;22;47125;-73
2024/02/24 04:59:08;;;;;;;;;0.00;0.00;;;;;21.94;40.26;99437.84;6400302;22;45842;-73
2024/02/24 05:01:33;;;;;;;;;0.67;0.67;;;;;21.94;40.11;99442.31;6400925;22;45316;-74
2024/02/24 05:03:58;;;;;;;;;0.00;0.00;;;;;21.92;40.50;99439.91;6400152;22;47340;-73
2024/02/24 05:06:24;;;;;;;;;0.00;0.00;;;;;21.87;39.64;99439.72;6400635;22;46219;-73
2024/02/24 05:08:49;;;;;;;;;0.67;0.67;;;;;21.83;40.19;99443.81;6400473;22;45348;-72
2024/02/24 05:11:14;;;;;;;;;1.67;1.67;;;;;21.96;39.96;99464.13;6400794;22;45224;-73
2024/02/24 05:13:40;;;;;;;;;3.00;1.00;;;;;21.95;40.13;99455.38;6400207;22;45229;-73
2024/02/24 05:16:05;;;;;;;;;0.67;0.67;;;;;21.94;39.61;99459.03;6400061;22;47263;-73
2024/02/24 05:18:31;;;;;;;;;2.33;0.67;;;;;21.95;39.57;99465.97;6400287;22;45283;-74
2024/02/24 05:20:59;;;;;;;;;2.00;0.67;;;;;21.90;40.09;99457.03;6371888;22;45347;-73
2024/02/24 05:23:24;;;;;;;;;2.00;1.00;;;;;21.94;40.00;99468.81;6400925;22;45252;-74
2024/02/24 05:25:49;;;;;;;;;1.67;0.67;;;;;21.93;39.95;99480.44;6399955;22;45986;-74
2024/02/24 05:28:14;;;;;;;;;1.33;1.33;;;;;21.93;39.41;99486.56;6399388;22;58646;-73
2024/02/24 05:30:40;;;;;;;;;2.00;2.00;;;;;21.89;39.88;99487.16;6400210;22;53607;-73
2024/02/24 05:33:05;;;;;;;;;1.00;0.67;;;;;21.92;39.81;99495.50;6400684;22;45220;-73
2024/02/24 05:35:30;;;;;;;;;1.00;0.33;;;;;21.79;39.97;99477.81;6399584;22;58199;-74
2024/02/24 05:37:56;;;;;;;;;0.67;0.67;;;;;21.92;39.88;99503.44;6400167;22;52602;-73
2024/02/24 05:40:22;;;;;;;;;0.33;0.33;;;;;21.89;40.14;99497.75;6400378;22;45279;-74
2024/02/24 05:42:47;;;;;;;;;0.67;0.67;;;;;21.91;39.89;99493.88;6400081;22;45458;-73
2024/02/24 05:45:12;;;;;;;;;0.67;0.67;;;;;21.91;39.49;99507.13;6400136;22;51763;-73
2024/02/24 05:47:38;;;;;;;;;0.67;0.67;;;;;21.91;39.74;99501.81;6400064;22;45305;-73
2024/02/24 05:50:04;;;;;;;;;1.33;0.67;;;;;21.91;40.03;99496.53;6400214;22;45380;-73
2024/02/24 05:52:30;;;;;;;;;0.67;0.67;;;;;21.61;40.01;99446.78;6400614;22;45252;-74
2024/02/24 05:54:55;;;;;;;;;0.67;0.67;;;;;21.92;40.15;99506.09;6400309;22;45247;-73
2024/02/24 05:57:20;;;;;;;;;0.33;0.33;;;;;21.73;39.80;99476.84;6399218;22;64419;-74
2024/02/24 05:59:45;;;;;;;;;0.67;0.33;;;;;21.91;39.91;99504.47;6400107;22;45251;-75
2024/02/24 06:02:11;;;;;;;;;2.33;1.33;;;;;21.91;39.89;99506.31;6400023;22;53480;-75
2024/02/24 06:04:38;;;;;;;;;0.67;0.67;;;;;21.91;39.52;99511.63;6399693;22;45260;-76
2024/02/24 06:07:03;;;;;;;;;0.67;0.67;;;;;21.81;39.65;99496.97;6400242;22;45311;-76
2024/02/24 06:09:29;;;;;;;;;1.00;1.00;;;;;21.91;39.50;99508.97;6400424;22;45315;-75
2024/02/24 06:11:54;;;;;;;;;0.67;0.67;;;;;21.88;40.01;99512.84;6399667;22;50385;-74
2024/02/24 06:14:19;;;;;;;;;0.33;0.33;;;;;21.78;39.91;99494.72;6400349;22;45270;-75
2024/02/24 06:16:45;;;;;;;;;1.33;0.00;;;;;21.91;39.60;99514.28;6400085;22;45287;-75
2024/02/24 06:19:10;;;;;;;;;0.67;0.67;;;;;21.91;39.67;99514.28;6399679;22;57208;-74
2024/02/24 06:21:35;;;;;;;;;0.67;0.67;;;;;21.76;39.63;99491.47;6400012;22;45494;-75
2024/02/24 06:24:01;;;;;;;;;1.00;0.67;;;;;21.86;39.41;99514.84;6399925;22;53893;-76
2024/02/24 06:26:26;;;;;;;;;0.33;0.33;;;;;21.84;39.71;99515.06;6399384;22;45374;-75
2024/02/24 06:28:51;;;;;;;;;3.33;1.00;;;;;21.89;39.37;99527.69;6400067;22;45240;-74
2024/02/24 06:31:18;;;;;;;;;1.00;1.00;;;;;21.59;39.94;99480.56;6400240;22;45422;-74
2024/02/24 06:33:43;;;;;;;;;1.67;0.67;;;;;21.77;39.15;99516.13;6399629;22;46933;-75
2024/02/24 06:36:08;;;;;;;;;1.67;0.67;;;;;21.78;39.38;99515.91;6400294;22;45365;-74
2024/02/24 06:38:34;;;;;;;;;2.33;1.00;;;;;21.83;39.25;99526.69;6400481;22;45243;-75
2024/02/24 06:40:59;;;;;;;;;0.00;0.00;;;;;21.90;39.15;99534.63;6399435;22;45247;-74
2024/02/24 06:43:24;;;;;;;;;1.00;0.33;;;;;21.85;39.62;99529.94;6400131;22;45835;-74
2024/02/24 06:45:50;;;;;;;;;0.67;0.67;;;;;21.71;39.11;99515.13;6400148;22;45402;-76
2024/02/24 06:48:15;;;;;;;;;0.67;0.67;;;;;21.77;39.27;99532.84;6399986;22;52140;-74
2024/02/24 06:50:41;;;;;;;;;0.67;0.67;;;;;21.53;39.47;99498.09;6399812;22;45258;-74
2024/02/24 06:53:06;;;;;;;;;3.00;0.67;;;;;21.88;39.67;99543.81;6399856;22;45318;-75
2024/02/24 06:55:32;;;;;;;;;1.67;0.00;;;;;21.58;39.03;99513.34;6399455;22;45267;-75
2024/02/24 06:57:57;;;;;;;;;0.00;0.00;;;;;21.71;39.54;99538.94;6399817;22;45182;-76
2024/02/24 07:00:23;;;;;;;;;0.67;0.67;;;;;21.88;39.38;99565.00;6400857;22;45206;-75
2024/02/24 07:02:49;;;;;;;;;0.67;0.67;;;;;21.86;39.22;99559.88;6400021;22;45229;-74
2024/02/24 07:05:15;;;;;;;;;0.67;0.67;;;;;21.69;39.60;99541.81;6399498;22;45249;-74
2024/02/24 07:07:41;;;;;;;;;0.67;0.67;;;;;21.88;39.40;99570.28;6399796;22;45787;-73
2024/02/24 07:10:08;;;;;;;;;0.00;0.00;;;;;21.86;39.95;99573.09;6399171;22;45673;-74
2024/02/24 07:12:34;;;;;;;;;0.00;0.00;;;;;21.84;39.67;99586.56;6399403;22;47372;-74
2024/02/24 07:15:00;;;;;;;;;0.33;0.00;;;;;21.82;39.56;99590.44;6399963;22;45221;-74
2024/02/24 07:17:26;;;;;;;;;0.67;0.67;;;;;21.79;39.47;99583.72;6399731;22;45275;-73
2024/02/24 07:19:52;;;;;;;;;2.00;1.00;;;;;21.87;39.77;99601.25;6399816;22;45423;-74
2024/02/24 07:22:18;;;;;;;;;0.00;0.00;;;;;21.84;39.82;99598.97;6399228;22;46095;-74
2024/02/24 07:24:43;;;;;;;;;0.00;0.00;;;;;21.76;39.64;99578.03;6399247;22;47881;-74
2024/02/24 07:27:11;;;;;;;;;1.00;0.67;;;;;21.87;39.49;99603.91;6370679;22;53767;-75
2024/02/24 07:29:37;;;;;;;;;0.33;0.33;;;;;21.85;39.36;99605.91;6399795;22;45461;-74
2024/02/24 07:32:02;;;;;;;;;1.00;0.67;;;;;21.87;39.58;99601.25;6399630;22;45372;-73
2024/02/24 07:34:28;;;;;;;;;0.33;0.33;;;;;21.88;39.34;99602.88;6399328;22;45388;-74
2024/02/24 07:36:53;;;;;;;;;0.33;0.33;;;;;21.84;39.36;99596.34;6399961;22;45251;-75
2024/02/24 07:39:18;;;;;;;;;0.00;0.00;;;;;21.90;39.39;99606.13;6399631;22;45263;-74
2024/02/24 07:41:44;;;;;;;;;0.00;0.00;;;;;21.90;39.76;99602.66;6399471;22;45871;-75
2024/02/24 07:44:11;;;;;;;;;0.00;0.00;;;;;21.83;39.49;99606.09;6399212;22;45255;-73
2024/02/24 07:46:36;;;;;;;;;0.00;0.00;;;;;21.90;39.75;99622.03;6399386;22;45271;-74
2024/02/24 07:49:02;;;;;;;;;0.33;0.33;;;;;21.91;39.39;99626.28;6399277;22;45232;-74
2024/02/24 07:51:28;;;;;;;;;0.67;0.67;;;;;21.72;39.65;99602.28;6399610;22;45193;-74
2024/02/24 07:53:54;;;;;;;;;2.67;0.67;;;;;21.92;39.58;99641.16;6398700;22;45228;-74
2024/02/24 07:56:24;;;;;;;;;0.67;0.67;;;;;21.91;39.60;99644.81;6399187;22;45379;-74
2024/02/24 07:58:50;;;;;;;;;1.67;1.67;;;;;21.84;39.13;99636.88;6399397;22;45432;-74
2024/02/24 08:01:16;;;;;;;;;1.00;1.00;;;;;21.91;39.42;99644.81;6399318;22;45356;-74
2024/02/24 08:03:41;;;;;;;;;0.00;0.00;;;;;21.92;39.66;99643.81;6399354;22;45194;-74
2024/02/24 08:06:07;;;;;;;;;0.67;0.67;;;;;21.92;39.41;99643.81;6399399;22;45303;-75
2024/02/24 08:08:36;;;;;;;;;0.67;0.00;;;;;21.93;39.45;99642.78;6398956;22;45353;-74
2024/02/24 08:11:02;;;;;;;;;0.33;0.33;;;;;21.94;39.83;99643.59;6398760;22;46153;-74
2024/02/24 08:13:28;;;;;;;;;0.00;0.00;;;;;21.94;39.53;99641.75;6399239;22;45319;-73
2024/02/24 08:15:54;;;;;;;;;1.67;0.00;;;;;21.92;39.60;99651.75;6399474;22;45271;-74
2024/02/24 08:18:19;;;;;;;;;1.33;0.00;;;;;21.96;40.00;99657.44;6399105;22;45329;-74
2024/02/24 08:20:44;;;;;;;;;0.00;0.00;;;;;21.96;39.63;99647.66;6398211;22;46159;-74
2024/02/24 08:23:10;;;;;;;;;0.00;0.00;;;;;21.94;39.92;99638.28;6399178;22;45279;-74
2024/02/24 08:25:35;;;;;;;;;0.67;0.67;;;;;21.93;40.18;99631.38;6399046;22;45260;-75
2024/02/24 08:28:00;;;;;;;;;0.67;0.67;;;;;22.06;40.11;99644.59;6400204;22;45426;-74
2024/02/24 08:30:26;;;;;;;;;0.00;0.00;;;;;22.17;39.77;99637.78;6400212;22;55727;-74
2024/02/24 08:32:51;;;;;;;;;1.00;0.33;;;;;22.53;39.80;99642.72;6400939;22;45266;-75
2024/02/24 08:35:17;;;;;;;;;0.00;0.00;;;;;22.75;39.81;99647.72;6400536;22;45296;-75
2024/02/24 08:37:44;;;;;;;;;1.00;1.00;;;;;23.00;39.82;99654.91;6400635;22;45426;-74
2024/02/24 08:40:10;;;;;;;;;0.33;0.33;;;;;23.24;39.66;99651.63;6400215;22;46257;-75
2024/02/24 08:42:35;;;;;;;;;0.67;0.67;;;;;23.36;39.76;99649.06;6399979;22;45603;-74
2024/02/24 08:45:01;;;;;;;;;1.00;1.00;;;;;23.60;39.52;99660.69;6399641;22;45343;-74
2024/02/24 08:47:26;;;;;;;;;1.00;0.00;;;;;23.79;39.54;99668.69;6400150;22;55528;-74
2024/02/24 08:49:51;;;;;;;;;1.00;1.00;;;;;24.00;38.92;99666.63;6399143;22;46039;-74
2024/02/24 08:52:17;;;;;;;;;0.00;0.00;;;;;24.16;39.07;99659.91;6399827;22;45236;-74
2024/02/24 08:54:42;;;;;;;;;0.00;0.00;;;;;24.22;38.44;99666.16;6399838;22;57327;-73
2024/02/24 08:57:07;;;;;;;;;2.00;0.00;;;;;24.17;38.89;99658.06;6400020;22;56918;-74
2024/02/24 08:59:32;;;;;;;;;0.00;0.00;;;;;24.12;38.87;99658.72;6371650;22;45865;-75
2024/02/24 09:01:58;;;;;;;;;1.67;1.00;;;;;24.17;38.71;99663.38;6400185;22;45275;-74
2024/02/24 09:04:23;;;;;;;;;1.67;1.00;;;;;24.10;38.87;99658.13;6400694;22;45259;-75
2024/02/24 09:06:48;;;;;;;;;0.00;0.00;;;;;23.84;39.10;99631.66;6400299;22;45556;-75
2024/02/24 09:09:14;;;;;;;;;0.00;0.00;;;;;24.05;38.66;99671.25;6399750;22;47143;-73
2024/02/24 09:11:41;;;;;;;;;0.00;0.00;;;;;23.96;38.07;99668.13;6401789;22;45287;-88
2024/02/24 09:14:06;;;;;;;;;1.00;1.00;;;;;23.67;38.50;99628.78;6402238;22;45263;-91
2024/02/24 09:16:32;;;;;;;;;0.33;0.33;;;;;23.67;38.60;99638.59;6401337;22;45275;-89
2024/02/24 09:18:57;;;;;;;;;2.00;0.00;;;;;23.58;38.51;99636.22;6400857;22;45621;-80
2024/02/24 09:21:22;;;;;;;;;0.00;0.00;;;;;23.80;38.61;99672.97;6400137;22;45356;-74
2024/02/24 09:23:47;;;;;;;;;0.00;0.00;;;;;23.71;38.50;99667.13;6400236;22;45300;-75
2024/02/24 09:26:13;;;;;;;;;2.67;0.00;;;;;23.70;38.40;99684.13;6371716;22;45241;-75
2024/02/24 09:28:38;;;;;;;;;3.33;0.00;;;;;23.60;38.56;99668.66;6400610;22;46254;-75
2024/02/24 09:31:04;;;;;;;;;1.00;1.00;;;;;23.63;38.76;99675.38;6399937;22;45303;-74
2024/02/24 09:33:29;;;;;;;;;1.33;1.00;;;;;23.56;38.85;99677.28;6399647;22;45258;-80
2024/02/24 09:35:55;;;;;;;;;4.00;1.00;;;;;23.48;39.20;99671.22;6371773;22;45254;-78
2024/02/24 09:38:20;;;;;;;;;2.00;2.00;;;;;23.62;38.87;99695.03;6400281;22;45361;-77
2024/02/24 09:40:48;;;;;;;;;1.00;1.00;;;;;23.60;39.21;99697.09;6400724;22;45291;-74
2024/02/24 09:43:13;;;;;;;;;2.00;1.67;;;;;23.44;39.11;99680.66;6400492;22;45355;-78
2024/02/24 09:45:46;;;;;;;;;5.00;3.00;;;;;23.45;39.21;99695.53;6399844;22;45173;-74
2024/02/24 09:48:12;;;;;;;;;0.00;0.00;;;;;23.49;38.86;99706.53;6400055;22;45942;-76
2024/02/24 09:50:37;;;;;;;;;3.33;2.00;;;;;23.46;39.16;99701.66;6399807;22;45328;-79
2024/02/24 09:53:03;;;;;;;;;4.67;3.00;;;;;23.27;39.03;99683.84;6400059;22;45375;-79
2024/02/24 09:55:28;;;;;;;;;2.00;2.00;;;;;23.33;39.28;99695.44;6400192;22;45294;-80
2024/02/24 09:57:56;;;;;;;;;8.67;2.67;;;;;23.25;38.98;99688.56;6399789;22;46114;-77
2024/02/24 10:00:21;;;;;;;;;4.33;2.00;;;;;23.24;38.70;99688.75;6400726;22;45201;-83
2024/02/24 10:02:48;;;;;;;;;2.67;2.00;;;;;23.18;38.98;99696.59;6399613;22;45226;-79
2024/02/24 10:05:17;;;;;;;;;6.00;2.00;;;;;23.28;39.03;99705.91;6400152;22;45410;-78
2024/02/24 10:07:43;;;;;;;;;1.33;1.33;;;;;23.27;39.51;99707.72;6398639;22;46345;-78
2024/02/24 10:10:11;;;;;;;;;6.00;3.67;;;;;23.28;39.36;99712.03;6400234;22;45315;-83
2024/02/24 10:12:36;;;;;;;;;5.67;2.00;;;;;23.21;39.37;99686.56;6400129;22;45346;-85
2024/02/24 10:15:02;;;;;;;;;4.00;2.00;;;;;23.30;39.29;99706.47;6399896;22;45404;-82
2024/02/24 10:17:29;;;;;;;;;3.33;1.33;;;;;23.23;39.35;99692.47;6399416;22;45299;-79
2024/02/24 10:19:58;;;;;;;;;1.00;1.00;;;;;23.31;39.01;99702.00;6400034;22;45694;-78
2024/02/24 10:22:23;;;;;;;;;1.00;1.00;;;;;23.29;38.74;99699.53;6396686;22;45775;-76
2024/02/24 10:24:48;;;;;;;;;2.00;2.00;;;;;23.26;38.89;99692.03;6399439;22;45418;-76
2024/02/24 10:27:16;;;;;;;;;3.33;2.33;;;;;23.25;38.83;99704.50;6399395;22;50481;-76
2024/02/24 10:29:42;;;;;;;;;4.33;2.00;;;;;23.22;38.81;99702.25;6400020;22;45355;-77
2024/02/24 10:32:08;;;;;;;;;4.67;1.00;;;;;23.20;39.16;99693.72;6399692;22;45276;-75
2024/02/24 10:34:35;;;;;;;;;1.00;1.00;;;;;23.22;39.05;99702.25;6399376;22;45433;-75
2024/02/24 10:37:03;;;;;;;;;1.33;1.33;;;;;23.21;39.06;99708.63;6399610;22;45352;-74
2024/02/24 10:39:33;;;;;;;;;1.00;1.00;;;;;23.02;39.24;99676.69;6398718;22;45350;-74
2024/02/24 10:41:59;;;;;;;;;2.00;1.00;;;;;23.17;39.34;99707.41;6398696;22;45295;-75
2024/02/24 10:44:25;;;;;;;;;4.00;1.67;;;;;23.16;38.89;99708.44;6398829;22;45298;-74
2024/02/24 10:46:50;;;;;;;;;2.67;2.67;;;;;22.90;39.12;99667.81;6398315;22;45223;-74
2024/02/24 10:49:16;;;;;;;;;2.00;2.00;;;;;23.14;39.35;99713.13;6397697;22;45227;-75
2024/02/24 10:51:45;;;;;;;;;5.00;2.00;;;;;22.97;39.52;99689.81;6398416;22;45223;-75
2024/02/24 10:54:14;;;;;;;;;3.00;2.00;;;;;22.96;39.57;99691.63;6398849;22;45359;-75
2024/02/24 10:56:40;;;;;;;;;2.33;2.00;;;;;22.93;39.83;99677.97;6398788;22;46548;-75
2024/02/24 10:59:10;;;;;;;;;3.00;2.00;;;;;22.66;39.54;99643.66;6398216;22;45326;-75
2024/02/24 11:01:46;;;;;;;;;1.67;1.67;;;;;23.05;39.68;99710.75;6398444;22;45299;-76
2024/02/24 11:04:12;;;;;;;;;2.33;2.00;;;;;23.05;39.52;99699.34;6370344;22;45253;-75
2024/02/24 11:06:53;;;;;;;;;4.00;3.00;;;;;22.84;39.72;99680.91;6369675;22;47353;-76
2024/02/24 11:09:38;;;;;;;;;2.00;2.00;;;;;22.81;39.48;99686.63;6398428;22;45470;-78
2024/02/24 11:12:14;;;;;;;;;4.00;3.00;;;;;22.96;40.06;99718.16;6399294;22;45291;-75
2024/02/24 11:14:47;;;;;;;;;4.00;1.00;;;;;22.95;39.72;99716.53;6397619;22;45461;-75
2024/02/24 11:17:33;;;;;;;;;3.00;1.67;;;;;22.76;39.58;99691.75;6398033;22;46853;-75
2024/02/24 11:19:58;;;;;;;;;1.00;1.00;;;;;22.93;39.83;99712.47;6397893;22;45334;-75
2024/02/24 11:22:24;;;;;;;;;5.00;2.00;;;;;22.91;40.41;99725.13;6398853;22;45265;-75
2024/02/24 11:25:03;;;;;;;;;4.00;1.67;;;;;22.90;39.75;99723.50;6397925;22;45391;-76
2024/02/24 11:27:39;;;;;;;;;1.33;1.33;;;;;22.83;39.84;99721.72;6398151;22;47080;-74